Time;durP1;ratioP1;P1;durP2;ratioP2;P2;SDS_P1;SDS_P2;PMS_P1;PMS_P2;Temp;Humidity;BMP_temperature;BMP_pressure;BME280_temperature;BME280_humidity;BME280_pressure;Samples;Min_cycle;Max_cycle;Signal;HPM_P1;HPM_P2
2022/01/19 00:00:05;;;;;;;5.13;2.47;;;;;;;;;;5005281;28;20541;-72
2022/01/19 00:02:31;;;;;;;7.00;2.80;;;;;;;;;;5005399;28;20025;-72
2022/01/19 00:04:57;;;;;;;5.47;2.65;;;;;;;;;;4996592;28;20026;-72
2022/01/19 00:07:23;;;;;;;11.48;3.22;;;;;;;;;;4988392;28;20022;-72
2022/01/19 00:09:50;;;;;;;6.65;3.38;;;;;;;;;;4990323;28;20034;-72
2022/01/19 00:12:16;;;;;;;7.60;2.78;;;;;;;;;;4988648;28;20034;-72
2022/01/19 00:14:42;;;;;;;6.72;2.50;;;;;;;;;;4992881;28;20440;-73
2022/01/19 00:17:08;;;;;;;7.82;2.80;;;;;;;;;;5007820;28;20619;-72
2022/01/19 00:19:34;;;;;;;5.15;2.58;;;;;;;;;;5009854;28;20584;-72
2022/01/19 00:22:00;;;;;;;9.07;3.13;;;;;;;;;;5009434;28;20032;-72
2022/01/19 00:24:26;;;;;;;10.90;3.05;;;;;;;;;;5009589;28;20026;-72
2022/01/19 00:26:52;;;;;;;5.38;3.00;;;;;;;;;;5008199;28;20100;-73
2022/01/19 00:29:19;;;;;;;9.10;2.97;;;;;;;;;;5009541;28;20049;-73
2022/01/19 00:31:45;;;;;;;7.22;2.90;;;;;;;;;;5008994;28;20022;-72
2022/01/19 00:34:11;;;;;;;7.80;2.80;;;;;;;;;;4990972;28;20197;-73
2022/01/19 00:36:37;;;;;;;6.05;3.15;;;;;;;;;;4989483;28;20018;-72
2022/01/19 00:39:03;;;;;;;7.63;2.80;;;;;;;;;;4989600;28;20479;-73
2022/01/19 00:41:29;;;;;;;5.28;3.50;;;;;;;;;;4988346;28;20029;-72
2022/01/19 00:43:55;;;;;;;6.88;3.42;;;;;;;;;;4988881;28;20375;-72
2022/01/19 00:46:21;;;;;;;6.18;3.08;;;;;;;;;;4989755;28;20106;-72
2022/01/19 00:48:48;;;;;;;7.68;3.17;;;;;;;;;;4989402;28;20084;-72
2022/01/19 00:51:14;;;;;;;6.60;3.35;;;;;;;;;;4988053;28;20030;-73
2022/01/19 00:53:40;;;;;;;9.30;3.65;;;;;;;;;;4989182;28;20034;-73
2022/01/19 00:56:06;;;;;;;7.18;3.38;;;;;;;;;;4989277;28;20027;-73
2022/01/19 00:58:32;;;;;;;6.55;3.58;;;;;;;;;;4989430;28;20462;-72
2022/01/19 01:00:58;;;;;;;5.18;3.03;;;;;;;;;;4989244;28;20109;-72
2022/01/19 01:03:25;;;;;;;5.32;2.95;;;;;;;;;;4987912;28;20037;-72
2022/01/19 01:05:51;;;;;;;7.00;3.22;;;;;;;;;;5004904;28;20033;-72
2022/01/19 01:08:17;;;;;;;5.75;3.33;;;;;;;;;;5008605;28;20507;-72
2022/01/19 01:10:43;;;;;;;5.25;2.83;;;;;;;;;;5008743;28;20030;-72
2022/01/19 01:18:30;;;;;;;7.25;3.55;;;;;;;;;;5008871;28;20497;-72
2022/01/19 01:20:57;;;;;;;7.10;3.97;;;;;;;;;;5008631;28;20498;-73
2022/01/19 01:23:25;;;;;;;8.38;3.90;;;;;;;;;;5008367;28;20038;-72
2022/01/19 01:25:51;;;;;;;5.47;3.17;;;;;;;;;;5008641;28;20036;-72
2022/01/19 01:28:18;;;;;;;6.88;3.50;;;;;;;;;;5007040;28;20060;-73
2022/01/19 01:30:44;;;;;;;6.72;3.70;;;;;;;;;;5008339;28;20030;-72
2022/01/19 01:33:11;;;;;;;7.15;3.90;;;;;;;;;;5008328;28;20077;-72
2022/01/19 01:35:37;;;;;;;8.35;4.72;;;;;;;;;;5002481;28;20036;-72
2022/01/19 01:38:04;;;;;;;8.15;4.85;;;;;;;;;;5008543;28;20487;-72
2022/01/19 01:40:33;;;;;;;7.57;4.80;;;;;;;;;;5007142;28;20454;-72
2022/01/19 01:43:00;;;;;;;7.80;4.50;;;;;;;;;;5008083;28;20048;-72
2022/01/19 01:45:30;;;;;;;5.55;4.13;;;;;;;;;;5007760;28;20045;-72
2022/01/19 01:48:12;;;;;;;7.28;3.85;;;;;;;;;;5008147;28;20042;-72
2022/01/19 01:53:26;;;;;;;7.15;4.63;;;;;;;;;;5008166;28;20119;-73
2022/01/19 01:56:13;;;;;;;9.13;4.35;;;;;;;;;;5006485;28;20025;-72
2022/01/19 01:58:44;;;;;;;9.52;4.53;;;;;;;;;;5007641;28;20022;-72
2022/01/19 02:01:10;;;;;;;11.43;4.28;;;;;;;;;;5007957;28;20065;-72
2022/01/19 02:03:39;;;;;;;6.10;3.85;;;;;;;;;;5008038;28;20799;-72
2022/01/19 02:08:52;;;;;;;8.10;4.30;;;;;;;;;;4986736;28;20672;-72
2022/01/19 02:25:55;;;;;;;9.50;4.15;;;;;;;;;;4987509;28;20391;-73
2022/01/19 02:41:37;;;;;;;7.93;4.10;;;;;;;;;;5005781;28;20460;-74
2022/01/19 02:44:03;;;;;;;10.05;4.20;;;;;;;;;;5007269;28;20367;-75
2022/01/19 02:49:16;;;;;;;9.93;4.60;;;;;;;;;;5005438;28;20509;-72
2022/01/19 02:51:47;;;;;;;7.93;4.05;;;;;;;;;;5007395;28;20032;-72
2022/01/19 02:54:14;;;;;;;8.90;4.25;;;;;;;;;;5005618;28;20282;-73
2022/01/19 02:56:43;;;;;;;7.40;4.40;;;;;;;;;;5005825;28;20018;-73
2022/01/19 02:59:18;;;;;;;6.85;3.92;;;;;;;;;;5007095;28;20022;-73
2022/01/19 03:09:43;;;;;;;10.27;5.38;;;;;;;;;;4985790;28;20085;-72
2022/01/19 03:12:10;;;;;;;8.50;4.18;;;;;;;;;;4987219;28;20049;-72
2022/01/19 03:14:36;;;;;;;8.00;3.72;;;;;;;;;;4987214;28;20141;-72
2022/01/19 03:17:03;;;;;;;7.00;3.83;;;;;;;;;;4987354;28;20027;-72
2022/01/19 03:19:30;;;;;;;11.05;4.28;;;;;;;;;;4987285;28;20084;-72
2022/01/19 03:21:57;;;;;;;6.55;4.15;;;;;;;;;;4985888;28;20027;-72
2022/01/19 03:24:23;;;;;;;8.70;3.85;;;;;;;;;;4987291;28;20510;-72
2022/01/19 03:26:50;;;;;;;6.50;4.03;;;;;;;;;;4987533;28;20026;-72
2022/01/19 03:29:16;;;;;;;7.82;3.92;;;;;;;;;;4987246;28;20045;-72
2022/01/19 03:31:42;;;;;;;5.95;3.88;;;;;;;;;;4988365;28;20026;-72
2022/01/19 03:34:10;;;;;;;8.95;3.70;;;;;;;;;;4990216;28;20033;-73
2022/01/19 03:36:37;;;;;;;7.43;3.92;;;;;;;;;;4990698;28;20113;-72
2022/01/19 03:39:03;;;;;;;15.52;4.72;;;;;;;;;;4991129;28;20030;-72
2022/01/19 03:41:29;;;;;;;5.82;4.15;;;;;;;;;;4989946;28;20142;-72
2022/01/19 03:43:55;;;;;;;7.32;3.67;;;;;;;;;;4989652;28;20023;-72
2022/01/19 03:46:32;;;;;;;7.15;4.30;;;;;;;;;;4990337;28;20518;-72
2022/01/19 03:49:08;;;;;;;7.55;4.55;;;;;;;;;;4996859;28;20085;-72
2022/01/19 03:51:34;;;;;;;6.45;4.10;;;;;;;;;;5010364;28;20105;-76
2022/01/19 03:54:01;;;;;;;9.27;4.28;;;;;;;;;;5010307;28;20036;-72
2022/01/19 03:56:27;;;;;;;7.20;4.53;;;;;;;;;;5009979;28;20022;-72
2022/01/19 03:58:53;;;;;;;7.00;4.38;;;;;;;;;;5008537;28;20026;-72
2022/01/19 04:01:19;;;;;;;8.32;5.00;;;;;;;;;;5010104;28;20022;-72
2022/01/19 04:06:51;;;;;;;8.80;5.50;;;;;;;;;;5003868;28;20135;-72
2022/01/19 04:09:16;;;;;;;7.93;4.75;;;;;;;;;;5003313;28;20123;-72
2022/01/19 04:11:42;;;;;;;9.75;4.90;;;;;;;;;;5004906;28;20022;-73
2022/01/19 04:16:35;;;;;;;9.77;5.63;;;;;;;;;;5004973;28;20040;-72
2022/01/19 04:19:23;;;;;;;5.57;4.80;;;;;;;;;;5003244;28;20650;-72
2022/01/19 04:21:50;;;;;;;10.13;4.85;;;;;;;;;;5004518;28;20528;-72
2022/01/19 04:24:16;;;;;;;9.00;5.20;;;;;;;;;;5004512;28;20113;-72
2022/01/19 04:26:44;;;;;;;7.88;5.25;;;;;;;;;;5004091;28;20025;-72
2022/01/19 04:29:10;;;;;;;8.23;5.18;;;;;;;;;;5003109;28;20636;-72
2022/01/19 04:31:36;;;;;;;9.60;5.10;;;;;;;;;;5004130;28;20446;-72
2022/01/19 04:34:05;;;;;;;7.40;4.60;;;;;;;;;;4999961;28;20030;-73
2022/01/19 04:44:01;;;;;;;7.80;5.30;;;;;;;;;;4982620;28;20049;-72
2022/01/19 04:44:58;;;;;;;7.93;5.00;;;;;;;;;;4982324;28;20560;-72
2022/01/19 04:48:21;;;;;;;13.32;5.30;;;;;;;;;;4982407;28;20062;-72
2022/01/19 05:06:43;;;;;;;9.85;5.35;;;;;;;;;;4999941;28;20430;-73
2022/01/19 05:09:53;;;;;;;9.57;5.15;;;;;;;;;;5001818;28;20036;-72
2022/01/19 05:14:43;;;;;;;11.75;5.13;;;;;;;;;;5000965;28;20049;-72
2022/01/19 05:17:09;;;;;;;6.53;4.75;;;;;;;;;;4999868;28;20088;-73
2022/01/19 05:19:35;;;;;;;10.07;5.78;;;;;;;;;;5001573;28;20034;-72
2022/01/19 05:22:01;;;;;;;11.02;6.40;;;;;;;;;;5000667;28;20033;-72
2022/01/19 05:24:27;;;;;;;12.65;7.75;;;;;;;;;;5000342;28;20034;-72
2022/01/19 05:26:53;;;;;;;9.93;7.40;;;;;;;;;;5000655;28;20037;-73
2022/01/19 05:29:19;;;;;;;12.18;7.05;;;;;;;;;;5000545;28;20067;-73
2022/01/19 05:31:46;;;;;;;11.80;7.47;;;;;;;;;;5001553;28;20053;-72
2022/01/19 05:34:12;;;;;;;9.52;6.13;;;;;;;;;;4983151;28;20031;-72
2022/01/19 05:36:38;;;;;;;11.90;5.75;;;;;;;;;;4982582;28;20030;-72
2022/01/19 05:39:05;;;;;;;9.02;5.63;;;;;;;;;;4980961;28;20026;-72
2022/01/19 05:41:34;;;;;;;7.13;5.80;;;;;;;;;;4980422;28;20775;-72
2022/01/19 05:44:00;;;;;;;11.27;7.13;;;;;;;;;;4980812;28;20026;-73
2022/01/19 05:46:26;;;;;;;10.52;7.43;;;;;;;;;;4981852;28;20027;-72
2022/01/19 05:48:53;;;;;;;14.48;7.35;;;;;;;;;;4980876;28;20050;-72
2022/01/19 05:51:19;;;;;;;13.23;7.40;;;;;;;;;;4981125;28;20022;-72
2022/01/19 05:53:45;;;;;;;11.40;7.05;;;;;;;;;;4980585;28;20036;-72
2022/01/19 05:56:11;;;;;;;11.25;8.32;;;;;;;;;;4978035;28;20023;-73
2022/01/19 05:58:37;;;;;;;10.82;6.68;;;;;;;;;;4981326;28;20031;-76
2022/01/19 06:01:03;;;;;;;11.18;5.35;;;;;;;;;;4981391;28;20914;-72
2022/01/19 06:03:29;;;;;;;10.80;5.70;;;;;;;;;;4980824;28;20121;-73
2022/01/19 06:05:55;;;;;;;8.23;5.05;;;;;;;;;;4993482;28;20490;-72
2022/01/19 06:10:54;;;;;;;12.05;5.50;;;;;;;;;;5000112;28;20037;-72
2022/01/19 06:13:20;;;;;;;9.57;5.38;;;;;;;;;;5000420;28;20029;-72
2022/01/19 06:15:47;;;;;;;9.25;5.50;;;;;;;;;;5000502;28;20478;-72
2022/01/19 06:18:14;;;;;;;11.27;5.43;;;;;;;;;;5000633;28;20546;-72
2022/01/19 06:20:40;;;;;;;8.50;5.60;;;;;;;;;;4999749;28;20049;-72
2022/01/19 06:23:06;;;;;;;7.97;5.38;;;;;;;;;;4991393;28;20054;-72
2022/01/19 06:25:32;;;;;;;10.82;5.88;;;;;;;;;;4982969;28;20040;-72
2022/01/19 06:27:58;;;;;;;6.80;5.05;;;;;;;;;;4982782;28;20045;-72
2022/01/19 06:30:25;;;;;;;10.05;5.20;;;;;;;;;;4982135;28;20090;-73
2022/01/19 06:32:51;;;;;;;6.82;5.07;;;;;;;;;;4980846;28;20023;-73
2022/01/19 06:35:17;;;;;;;11.30;5.45;;;;;;;;;;4988685;28;20563;-72
2022/01/19 06:37:43;;;;;;;6.75;5.40;;;;;;;;;;5002162;28;20030;-72
2022/01/19 06:40:11;;;;;;;12.77;5.70;;;;;;;;;;5001907;28;20030;-72
2022/01/19 06:42:37;;;;;;;9.40;6.80;;;;;;;;;;5000942;28;20018;-73
2022/01/19 06:45:04;;;;;;;11.20;7.57;;;;;;;;;;5002016;28;20049;-78
2022/01/19 06:47:30;;;;;;;14.05;8.27;;;;;;;;;;5001372;28;20561;-73
2022/01/19 06:49:57;;;;;;;13.95;10.30;;;;;;;;;;4996986;28;20037;-74
2022/01/19 06:52:23;;;;;;;13.98;9.27;;;;;;;;;;4986202;28;20394;-74
2022/01/19 06:54:49;;;;;;;12.10;9.48;;;;;;;;;;4980475;28;20415;-73
2022/01/19 06:57:15;;;;;;;12.60;7.95;;;;;;;;;;4982414;28;20098;-74
2022/01/19 06:59:41;;;;;;;22.60;8.65;;;;;;;;;;4982112;28;20026;-75
2022/01/19 07:02:08;;;;;;;49.20;12.18;;;;;;;;;;4981997;28;20038;-76
2022/01/19 07:04:35;;;;;;;10.38;8.00;;;;;;;;;;4982637;28;20052;-73
2022/01/19 07:07:02;;;;;;;14.63;9.32;;;;;;;;;;4986267;28;20035;-74
2022/01/19 07:09:28;;;;;;;15.70;9.30;;;;;;;;;;4987770;28;20042;-72
2022/01/19 07:11:55;;;;;;;15.70;9.63;;;;;;;;;;5003963;28;20022;-73
2022/01/19 07:14:21;;;;;;;20.25;11.52;;;;;;;;;;5005639;28;20034;-72
2022/01/19 07:16:47;;;;;;;19.30;10.80;;;;;;;;;;5005542;28;20026;-73
2022/01/19 07:19:13;;;;;;;18.33;11.95;;;;;;;;;;5005856;28;20037;-72
2022/01/19 07:21:42;;;;;;;20.02;13.15;;;;;;;;;;5003894;28;20022;-73
2022/01/19 07:24:08;;;;;;;26.73;12.25;;;;;;;;;;5004470;28;20037;-72
2022/01/19 07:26:34;;;;;;;17.58;11.52;;;;;;;;;;4997227;28;20023;-72
2022/01/19 07:29:01;;;;;;;18.45;11.80;;;;;;;;;;4995763;28;20479;-75
2022/01/19 07:31:27;;;;;;;21.75;12.98;;;;;;;;;;5005540;28;20021;-74
2022/01/19 07:33:53;;;;;;;17.70;11.93;;;;;;;;;;5005356;28;20053;-76
2022/01/19 07:36:19;;;;;;;20.38;12.07;;;;;;;;;;5003573;28;20026;-76
2022/01/19 07:38:45;;;;;;;15.63;11.70;;;;;;;;;;5004940;28;20026;-76
2022/01/19 07:41:11;;;;;;;27.00;12.57;;;;;;;;;;5005004;28;20454;-77
2022/01/19 07:43:38;;;;;;;15.88;11.55;;;;;;;;;;5005423;28;20060;-76
2022/01/19 07:46:05;;;;;;;18.30;12.50;;;;;;;;;;5005125;28;20579;-74
2022/01/19 07:48:31;;;;;;;17.85;11.52;;;;;;;;;;5003701;28;20053;-74
2022/01/19 07:50:57;;;;;;;16.40;12.40;;;;;;;;;;5004049;28;20227;-73
2022/01/19 07:53:23;;;;;;;24.35;12.93;;;;;;;;;;5003554;28;20113;-77
2022/01/19 07:55:50;;;;;;;15.10;12.13;;;;;;;;;;4987732;28;20080;-75
2022/01/19 07:58:16;;;;;;;20.02;12.02;;;;;;;;;;4992772;28;20053;-78
2022/01/19 08:00:43;;;;;;;21.67;13.65;;;;;;;;;;4994997;28;20029;-77
2022/01/19 08:03:09;;;;;;;17.67;12.80;;;;;;;;;;4990503;28;20077;-79
2022/01/19 08:05:35;;;;;;;19.63;12.32;;;;;;;;;;4993849;28;20649;-78
2022/01/19 08:08:05;;;;;;;18.95;13.30;;;;;;;;;;4998958;28;20061;-80
2022/01/19 08:10:31;;;;;;;18.40;13.25;;;;;;;;;;4990188;28;20061;-78
2022/01/19 08:13:01;;;;;;;17.13;14.02;;;;;;;;;;4986958;28;20058;-78
2022/01/19 08:15:28;;;;;;;18.55;13.07;;;;;;;;;;4986359;28;20097;-78
2022/01/19 08:17:54;;;;;;;24.20;14.73;;;;;;;;;;4988810;28;20360;-78
2022/01/19 08:20:20;;;;;;;21.70;13.40;;;;;;;;;;5004907;28;20026;-78
2022/01/19 08:22:46;;;;;;;20.80;13.70;;;;;;;;;;4988649;28;20137;-78
2022/01/19 08:25:13;;;;;;;28.60;12.57;;;;;;;;;;4982584;28;20026;-77
2022/01/19 08:27:39;;;;;;;17.45;12.35;;;;;;;;;;4985559;28;20058;-78
2022/01/19 08:30:06;;;;;;;15.68;11.38;;;;;;;;;;4985234;28;20042;-79
2022/01/19 08:32:35;;;;;;;16.95;11.07;;;;;;;;;;4984212;28;20034;-78
2022/01/19 08:35:02;;;;;;;17.10;10.02;;;;;;;;;;4993867;28;20018;-79
2022/01/19 08:37:28;;;;;;;16.05;9.77;;;;;;;;;;4994759;28;20030;-78
2022/01/19 08:39:54;;;;;;;13.25;9.50;;;;;;;;;;4985056;28;20022;-78
2022/01/19 08:42:21;;;;;;;12.82;8.18;;;;;;;;;;4985067;28;20558;-78
2022/01/19 08:44:47;;;;;;;14.05;8.98;;;;;;;;;;4985362;28;20042;-78
2022/01/19 08:47:13;;;;;;;12.40;8.88;;;;;;;;;;4985179;28;20454;-78
2022/01/19 08:49:39;;;;;;;12.60;8.55;;;;;;;;;;4983662;28;20061;-79
2022/01/19 08:52:06;;;;;;;12.40;8.85;;;;;;;;;;4983708;28;20084;-80
2022/01/19 08:54:33;;;;;;;14.93;8.50;;;;;;;;;;4985318;28;20076;-78
2022/01/19 08:57:01;;;;;;;14.18;6.80;;;;;;;;;;4985213;28;20022;-78
2022/01/19 08:59:27;;;;;;;10.15;6.43;;;;;;;;;;4983495;28;20446;-78
2022/01/19 09:01:53;;;;;;;8.05;5.70;;;;;;;;;;4984999;28;20097;-77
2022/01/19 09:04:20;;;;;;;11.25;6.95;;;;;;;;;;4989853;28;20125;-77
2022/01/19 09:06:46;;;;;;;7.50;5.53;;;;;;;;;;5004131;28;20466;-78
2022/01/19 09:09:12;;;;;;;8.98;5.70;;;;;;;;;;5003992;28;20534;-77
2022/01/19 09:11:38;;;;;;;9.43;5.90;;;;;;;;;;5004188;28;20030;-77
2022/01/19 09:14:06;;;;;;;7.13;4.65;;;;;;;;;;5002585;28;20061;-78
2022/01/19 09:16:33;;;;;;;6.20;3.72;;;;;;;;;;5004535;28;20022;-78
2022/01/19 09:19:00;;;;;;;20.08;6.30;;;;;;;;;;5004468;28;20029;-77
2022/01/19 09:21:26;;;;;;;25.67;9.25;;;;;;;;;;4990684;28;20034;-78
2022/01/19 09:23:52;;;;;;;8.65;4.38;;;;;;;;;;4982680;28;20361;-79
2022/01/19 09:26:18;;;;;;;7.45;4.47;;;;;;;;;;4999691;28;20098;-78
2022/01/19 09:28:44;;;;;;;7.40;4.15;;;;;;;;;;5002761;28;20048;-78
2022/01/19 09:31:12;;;;;;;7.93;4.18;;;;;;;;;;5004382;28;20498;-77
2022/01/19 09:33:40;;;;;;;10.23;5.35;;;;;;;;;;5001887;28;20022;-78
2022/01/19 09:36:28;;;;;;;8.63;4.93;;;;;;;;;;5003837;28;20034;-78
2022/01/19 09:38:52;;;;;;;13.52;7.15;;;;;;;;;;4991210;28;20146;-77
2022/01/19 09:41:20;;;;;;;6.30;4.20;;;;;;;;;;4983611;28;20025;-78
2022/01/19 09:43:46;;;;;;;7.50;4.80;;;;;;;;;;4983759;28;20061;-76
2022/01/19 09:46:12;;;;;;;9.50;4.88;;;;;;;;;;4981759;28;20030;-78
2022/01/19 09:48:40;;;;;;;8.88;4.95;;;;;;;;;;4983265;28;20054;-78
2022/01/19 09:51:06;;;;;;;11.90;4.60;;;;;;;;;;4983178;28;20030;-78
2022/01/19 09:53:32;;;;;;;6.43;4.40;;;;;;;;;;4982929;28;20057;-79
2022/01/19 09:55:59;;;;;;;6.28;4.40;;;;;;;;;;4983037;28;20030;-77
2022/01/19 09:58:25;;;;;;;7.35;4.35;;;;;;;;;;4983315;28;20026;-78
2022/01/19 10:00:52;;;;;;;8.15;4.82;;;;;;;;;;4982318;28;20026;-75
2022/01/19 10:03:24;;;;;;;9.00;5.00;;;;;;;;;;4982664;28;20034;-76
2022/01/19 10:05:50;;;;;;;;;;;;;;;;;;4983406;28;20030;-76
2022/01/19 10:08:25;;;;;;;7.38;4.50;;;;;;;;;;4983076;28;19969;-74
2022/01/19 10:11:04;;;;;;;9.82;4.65;;;;;;;;;;4982105;28;20022;-73
2022/01/19 10:19:15;;;;;;;7.03;4.95;;;;;;;;;;4982491;28;20041;-75
2022/01/19 10:22:08;;;;;;;8.07;4.90;;;;;;;;;;4981751;28;20057;-78
2022/01/19 10:24:40;;;;;;;7.82;4.93;;;;;;;;;;4978348;28;20092;-79
2022/01/19 10:27:25;;;;;;;7.10;5.25;;;;;;;;;;4982567;28;20021;-80
2022/01/19 10:30:03;;;;;;;7.80;5.13;;;;;;;;;;4991893;28;20140;-80
2022/01/19 10:32:31;;;;;;;13.48;5.88;;;;;;;;;;5000481;28;20080;-85
2022/01/19 10:34:57;;;;;;;8.30;5.32;;;;;;;;;;4983600;28;20028;-90
2022/01/19 10:37:28;;;;;;;8.40;5.50;;;;;;;;;;4981842;28;20324;-76
2022/01/19 10:39:57;;;;;;;8.90;5.90;;;;;;;;;;4984495;28;20095;-77
2022/01/19 10:42:27;;;;;;;12.38;5.90;;;;;;;;;;4994509;28;20080;-79
2022/01/19 10:44:58;;;;;;;9.48;6.50;;;;;;;;;;5000558;28;20101;-72
2022/01/19 10:47:56;;;;;;;8.68;6.22;;;;;;;;;;4999831;28;20601;-74
2022/01/19 10:50:30;;;;;;;15.18;5.57;;;;;;;;;;4959460;28;20392;-73
2022/01/19 10:52:57;;;;;;;11.93;5.50;;;;;;;;;;4982471;28;20205;-79
2022/01/19 10:55:23;;;;;;;9.65;5.45;;;;;;;;;;4982019;28;20114;-78
2022/01/19 10:57:50;;;;;;;9.00;5.70;;;;;;;;;;4982171;28;20835;-79
2022/01/19 11:00:20;;;;;;;9.73;6.25;;;;;;;;;;4982138;28;20517;-79
2022/01/19 11:02:47;;;;;;;8.90;5.55;;;;;;;;;;4982515;28;20073;-83
2022/01/19 11:05:13;;;;;;;7.78;5.18;;;;;;;;;;4987677;28;20104;-76
2022/01/19 11:07:40;;;;;;;9.07;5.85;;;;;;;;;;5002408;28;20036;-81
2022/01/19 11:10:31;;;;;;;12.48;6.20;;;;;;;;;;5001739;28;20038;-75
2022/01/19 11:12:56;;;;;;;9.90;6.00;;;;;;;;;;4998813;28;20117;-80
2022/01/19 11:15:22;;;;;;;8.88;6.40;;;;;;;;;;5001680;28;20080;-81
2022/01/19 11:17:49;;;;;;;12.88;6.32;;;;;;;;;;4988458;28;20457;-82
2022/01/19 11:20:17;;;;;;;15.63;6.50;;;;;;;;;;4981270;28;20022;-82
2022/01/19 11:23:01;;;;;;;11.18;6.10;;;;;;;;;;4992570;28;20026;-74
2022/01/19 11:25:46;;;;;;;12.02;6.82;;;;;;;;;;4996202;28;20066;-80
2022/01/19 11:28:33;;;;;;;13.52;8.90;;;;;;;;;;4982967;28;20507;-77
2022/01/19 11:31:00;;;;;;;10.63;7.63;;;;;;;;;;5001291;28;20536;-81
2022/01/19 11:33:28;;;;;;;11.30;6.70;;;;;;;;;;4989642;28;20069;-78
2022/01/19 11:35:54;;;;;;;9.75;6.72;;;;;;;;;;4995121;28;20045;-79
2022/01/19 11:38:38;;;;;;;11.00;6.30;;;;;;;;;;5001373;28;20103;-77
2022/01/19 11:41:25;;;;;;;10.23;6.82;;;;;;;;;;4995954;28;20426;-78
2022/01/19 11:43:56;;;;;;;9.25;6.65;;;;;;;;;;5000148;28;20033;-77
2022/01/19 11:46:28;;;;;;;11.65;6.97;;;;;;;;;;5001883;28;20109;-76
2022/01/19 11:48:54;;;;;;;13.20;7.55;;;;;;;;;;4999591;28;20510;-77
2022/01/19 11:51:27;;;;;;;12.20;7.22;;;;;;;;;;5001873;28;20026;-77
2022/01/19 11:54:13;;;;;;;16.50;8.68;;;;;;;;;;5005228;28;20025;-78
2022/01/19 11:57:09;;;;;;;18.23;9.27;;;;;;;;;;5004867;28;20038;-77
2022/01/19 11:59:44;;;;;;;13.90;9.15;;;;;;;;;;4995068;28;20041;-78
2022/01/19 12:02:23;;;;;;;13.45;8.48;;;;;;;;;;4986117;28;20077;-77
2022/01/19 12:04:52;;;;;;;11.82;8.75;;;;;;;;;;4990223;28;20081;-76
2022/01/19 12:07:38;;;;;;;13.63;9.10;;;;;;;;;;5004622;28;20048;-76
2022/01/19 12:10:24;;;;;;;13.20;8.88;;;;;;;;;;5004410;28;20041;-76
2022/01/19 12:13:13;;;;;;;11.82;8.82;;;;;;;;;;5003141;28;20117;-77
2022/01/19 12:15:54;;;;;;;13.90;8.65;;;;;;;;;;4999074;28;20042;-76
2022/01/19 12:18:39;;;;;;;13.43;8.25;;;;;;;;;;5004367;28;20022;-76
2022/01/19 12:21:05;;;;;;;13.32;8.45;;;;;;;;;;5004792;28;20071;-77
2022/01/19 12:23:34;;;;;;;15.15;8.88;;;;;;;;;;5004586;28;20057;-76
2022/01/19 12:26:01;;;;;;;9.73;7.53;;;;;;;;;;5002338;28;20037;-77
2022/01/19 12:28:39;;;;;;;14.73;8.05;;;;;;;;;;5004401;28;20037;-77
2022/01/19 12:31:24;;;;;;;18.52;8.93;;;;;;;;;;5004594;28;20474;-78
2022/01/19 12:34:09;;;;;;;15.63;8.18;;;;;;;;;;5003013;28;20465;-76
2022/01/19 12:36:47;;;;;;;13.35;9.20;;;;;;;;;;4985448;28;20721;-77
2022/01/19 12:39:25;;;;;;;16.27;8.60;;;;;;;;;;4982997;28;20030;-77
2022/01/19 12:42:16;;;;;;;12.27;8.35;;;;;;;;;;4982674;28;20036;-77
2022/01/19 12:44:47;;;;;;;19.67;8.00;;;;;;;;;;4983326;28;20023;-78
2022/01/19 12:47:28;;;;;;;11.70;8.13;;;;;;;;;;4983184;28;20651;-77
2022/01/19 12:49:54;;;;;;;13.32;7.78;;;;;;;;;;4984089;28;20403;-76
2022/01/19 12:52:22;;;;;;;13.48;7.72;;;;;;;;;;4984145;28;20058;-76
2022/01/19 12:54:48;;;;;;;13.48;7.63;;;;;;;;;;4983813;28;20069;-77
2022/01/19 12:57:15;;;;;;;14.02;7.75;;;;;;;;;;4983039;28;20037;-77
2022/01/19 12:59:46;;;;;;;8.77;6.80;;;;;;;;;;4984450;28;20034;-76
2022/01/19 13:02:13;;;;;;;12.20;7.85;;;;;;;;;;4981166;28;20039;-78
2022/01/19 13:04:41;;;;;;;12.65;7.78;;;;;;;;;;4985330;28;20026;-78
2022/01/19 13:07:19;;;;;;;9.68;7.18;;;;;;;;;;5004096;28;20117;-77
2022/01/19 13:10:07;;;;;;;13.68;7.50;;;;;;;;;;5002525;28;20030;-79
2022/01/19 13:12:42;;;;;;;15.75;8.45;;;;;;;;;;4985228;28;20023;-77
2022/01/19 13:15:09;;;;;;;9.70;7.78;;;;;;;;;;4994220;28;20393;-76
2022/01/19 13:17:42;;;;;;;10.95;8.00;;;;;;;;;;4981560;28;20018;-78
2022/01/19 13:20:13;;;;;;;15.07;7.18;;;;;;;;;;4981600;28;20022;-78
2022/01/19 13:22:46;;;;;;;13.82;7.13;;;;;;;;;;4980957;28;20028;-78
2022/01/19 13:25:25;;;;;;;14.23;7.30;;;;;;;;;;4980575;28;20018;-79
2022/01/19 13:27:56;;;;;;;9.15;6.18;;;;;;;;;;4981354;28;20441;-78
2022/01/19 13:30:23;;;;;;;12.13;6.80;;;;;;;;;;4981517;28;20034;-77
2022/01/19 13:32:50;;;;;;;13.75;6.88;;;;;;;;;;4979839;28;20041;-78
2022/01/19 13:35:16;;;;;;;9.85;7.10;;;;;;;;;;4978914;28;20034;-78
2022/01/19 13:37:48;;;;;;;11.38;7.22;;;;;;;;;;4981204;28;20029;-79
2022/01/19 13:40:19;;;;;;;15.25;8.27;;;;;;;;;;4981858;28;20038;-78
2022/01/19 13:42:51;;;;;;;12.75;7.25;;;;;;;;;;4981005;28;20030;-78
2022/01/19 13:45:30;;;;;;;10.45;7.65;;;;;;;;;;4981474;28;20605;-77
2022/01/19 13:50:31;;;;;;;15.10;9.02;;;;;;;;;;5000641;28;20069;-77
2022/01/19 13:52:58;;;;;;;12.68;8.32;;;;;;;;;;4994754;28;20153;-79
2022/01/19 13:55:24;;;;;;;14.90;9.75;;;;;;;;;;4980648;28;20037;-77
2022/01/19 13:57:51;;;;;;;13.98;9.15;;;;;;;;;;4980306;28;20382;-77
2022/01/19 14:00:19;;;;;;;13.30;9.05;;;;;;;;;;4979966;28;20877;-78
2022/01/19 14:03:02;;;;;;;12.75;8.02;;;;;;;;;;4983873;28;20041;-77
2022/01/19 14:05:39;;;;;;;11.52;7.75;;;;;;;;;;4977772;28;20034;-78
2022/01/19 14:08:05;;;;;;;13.65;8.18;;;;;;;;;;4981985;28;20058;-74
2022/01/19 14:10:40;;;;;;;14.77;8.23;;;;;;;;;;4979810;28;20035;-77
2022/01/19 14:13:29;;;;;;;15.90;8.95;;;;;;;;;;4981444;28;20037;-79
2022/01/19 14:15:56;;;;;;;11.18;8.18;;;;;;;;;;4981672;28;20038;-79
2022/01/19 14:18:22;;;;;;;14.38;8.20;;;;;;;;;;4989082;28;20091;-80
2022/01/19 14:21:05;;;;;;;11.00;8.07;;;;;;;;;;4979358;28;20808;-79
2022/01/19 14:23:31;;;;;;;14.70;8.05;;;;;;;;;;4978672;28;20064;-79
2022/01/19 14:26:08;;;;;;;21.90;8.45;;;;;;;;;;4980516;28;20099;-79
2022/01/19 14:28:36;;;;;;;14.18;8.02;;;;;;;;;;4983586;28;20042;-78
2022/01/19 14:31:03;;;;;;;11.57;6.80;;;;;;;;;;4981194;28;20030;-79
2022/01/19 14:33:30;;;;;;;9.05;6.32;;;;;;;;;;4980398;28;20062;-79
2022/01/19 14:35:57;;;;;;;10.40;6.68;;;;;;;;;;4977724;28;20024;-79
2022/01/19 14:38:30;;;;;;;9.20;6.30;;;;;;;;;;4995507;28;20026;-79
2022/01/19 14:41:16;;;;;;;11.63;7.65;;;;;;;;;;4991691;28;20033;-77
2022/01/19 14:43:48;;;;;;;10.63;7.15;;;;;;;;;;4981440;28;20063;-80
2022/01/19 14:46:25;;;;;;;13.27;7.25;;;;;;;;;;4979388;28;20031;-76
2022/01/19 14:48:52;;;;;;;9.93;7.05;;;;;;;;;;4978809;28;20074;-78
2022/01/19 14:51:19;;;;;;;15.82;7.38;;;;;;;;;;4980166;28;20068;-78
2022/01/19 14:53:46;;;;;;;14.55;6.95;;;;;;;;;;4980245;28;20093;-78
2022/01/19 14:56:16;;;;;;;13.80;6.85;;;;;;;;;;4979421;28;20033;-78
2022/01/19 14:58:42;;;;;;;11.70;6.85;;;;;;;;;;4984743;28;20030;-78
2022/01/19 15:01:08;;;;;;;11.80;6.32;;;;;;;;;;4981656;28;20033;-82
2022/01/19 15:03:34;;;;;;;10.93;6.57;;;;;;;;;;4979884;28;20034;-78
2022/01/19 15:06:01;;;;;;;10.02;6.75;;;;;;;;;;4981081;28;20018;-78
2022/01/19 15:08:28;;;;;;;8.93;6.45;;;;;;;;;;4979608;28;20121;-78
2022/01/19 15:10:54;;;;;;;11.65;6.63;;;;;;;;;;4983978;28;20026;-78
2022/01/19 15:13:20;;;;;;;10.20;6.15;;;;;;;;;;4978883;28;20137;-78
2022/01/19 15:15:46;;;;;;;9.38;6.57;;;;;;;;;;4978325;28;20032;-78
2022/01/19 15:18:13;;;;;;;13.32;6.90;;;;;;;;;;4982468;28;20027;-78
2022/01/19 15:20:42;;;;;;;14.02;7.20;;;;;;;;;;4990678;28;20026;-79
2022/01/19 15:23:08;;;;;;;9.38;6.63;;;;;;;;;;4986167;28;20383;-81
2022/01/19 15:25:39;;;;;;;9.32;6.35;;;;;;;;;;4994408;28;20026;-78
2022/01/19 15:28:06;;;;;;;10.65;5.75;;;;;;;;;;4986311;28;20041;-78
2022/01/19 15:30:33;;;;;;;12.55;6.43;;;;;;;;;;4987918;28;20034;-80
2022/01/19 15:32:59;;;;;;;11.90;6.32;;;;;;;;;;4992431;28;20029;-81
2022/01/19 15:35:26;;;;;;;12.45;6.90;;;;;;;;;;4982800;28;20065;-80
2022/01/19 15:38:01;;;;;;;13.38;7.25;;;;;;;;;;4998473;28;20026;-80
2022/01/19 15:40:28;;;;;;;10.27;6.22;;;;;;;;;;4993769;28;20096;-79
2022/01/19 15:42:56;;;;;;;11.55;6.63;;;;;;;;;;5002902;28;20037;-79
2022/01/19 15:45:23;;;;;;;12.20;6.28;;;;;;;;;;4985542;28;20038;-80
2022/01/19 15:47:49;;;;;;;11.18;6.45;;;;;;;;;;4987173;28;20879;-77
2022/01/19 15:50:15;;;;;;;12.18;5.50;;;;;;;;;;4994075;28;20542;-81
2022/01/19 15:52:44;;;;;;;10.23;6.30;;;;;;;;;;4983380;28;20027;-80
2022/01/19 15:55:15;;;;;;;8.32;6.28;;;;;;;;;;4981428;28;20022;-81
2022/01/19 15:58:11;;;;;;;;;;;;;;;;;;;;;
2022/01/19 16:00:50;;;;;;;;;;;;;;;;;;;;;
2022/01/19 16:03:53;;;;;;;;;;;;;;;;;;;;;
2022/01/19 16:13:04;;;;;;;10.35;5.22;;;;;;;;;;4877010;29;20040;-82
2022/01/19 16:15:43;;;;;;;7.70;4.93;;;;;;;;;;4900903;29;20110;-81
2022/01/19 16:18:17;;;;;;;8.10;5.00;;;;;;;;;;4988921;28;20034;-82
2022/01/19 16:21:08;;;;;;;14.88;6.93;;;;;;;;;;4995457;28;20058;-81
2022/01/19 16:26:20;;;;;;;8.25;5.35;;;;;;;;;;4984499;28;20077;-83
2022/01/19 16:28:47;;;;;;;8.13;5.20;;;;;;;;;;4980817;28;20050;-82
2022/01/19 16:31:15;;;;;;;9.65;5.93;;;;;;;;;;4979593;28;20026;-82